Time;durP1;ratioP1;P1;durP2;ratioP2;P2;SDS_P1;SDS_P2;PMS_P1;PMS_P2;Temp;Humidity;BMP_temperature;BMP_pressure;BME280_temperature;BME280_humidity;BME280_pressure;Samples;Min_cycle;Max_cycle;Signal;HPM_P1;HPM_P2
2023/01/12 00:01:37;;;;;;;3.08;0.93;;;;;;;;;;5054412;28;20052;-84
2023/01/12 00:04:02;;;;;;;2.03;0.95;;;;;;;;;;5032874;28;20033;-81
2023/01/12 00:06:28;;;;;;;5.93;0.70;;;;;;;;;;5031873;28;20457;-80
2023/01/12 00:08:54;;;;;;;2.28;1.00;;;;;;;;;;5032034;28;20022;-83
2023/01/12 00:11:20;;;;;;;6.68;1.13;;;;;;;;;;5029722;28;20025;-83
2023/01/12 00:13:48;;;;;;;7.53;1.17;;;;;;;;;;5029042;28;20033;-82
2023/01/12 00:16:34;;;;;;;0.75;0.57;;;;;;;;;;5015450;28;20034;-82
2023/01/12 00:19:20;;;;;;;4.03;1.00;;;;;;;;;;5020645;28;20029;-83
2023/01/12 00:24:31;;;;;;;1.95;1.38;;;;;;;;;;5022760;28;20548;-81
2023/01/12 00:27:00;;;;;;;3.70;1.20;;;;;;;;;;5020993;28;20502;-81
2023/01/12 00:29:27;;;;;;;3.78;1.10;;;;;;;;;;5018513;28;20533;-83
2023/01/12 00:31:53;;;;;;;8.20;2.35;;;;;;;;;;5014671;28;20033;-81
2023/01/12 00:34:19;;;;;;;1.90;0.80;;;;;;;;;;5022304;28;20037;-78
2023/01/12 00:36:45;;;;;;;3.85;1.20;;;;;;;;;;5015035;28;20044;-81
2023/01/12 00:39:12;;;;;;;4.82;1.08;;;;;;;;;;5018242;28;20034;-81
2023/01/12 00:47:15;;;;;;;5.07;0.90;;;;;;;;;;5033956;28;20042;-82
2023/01/12 00:49:41;;;;;;;2.58;1.13;;;;;;;;;;5026741;28;20032;-80
2023/01/12 00:52:09;;;;;;;1.95;0.60;;;;;;;;;;5025719;28;20116;-82
2023/01/12 00:54:35;;;;;;;2.00;0.57;;;;;;;;;;5020690;28;20057;-82
2023/01/12 00:57:02;;;;;;;5.32;0.93;;;;;;;;;;5025678;28;20522;-81
2023/01/12 00:59:28;;;;;;;3.63;0.70;;;;;;;;;;5025463;28;20041;-81
2023/01/12 01:01:54;;;;;;;5.20;1.23;;;;;;;;;;5025694;28;20030;-80
2023/01/12 01:04:19;;;;;;;4.95;1.02;;;;;;;;;;5024057;28;20050;-81
2023/01/12 01:06:45;;;;;;;3.08;1.13;;;;;;;;;;5015406;28;20033;-84
2023/01/12 01:09:10;;;;;;;3.28;1.80;;;;;;;;;;5015430;28;20021;-80
2023/01/12 01:11:35;;;;;;;5.15;0.90;;;;;;;;;;5015039;28;20033;-83
2023/01/12 01:14:01;;;;;;;5.85;1.10;;;;;;;;;;5015255;28;21560;-82
2023/01/12 01:16:28;;;;;;;1.77;0.80;;;;;;;;;;5015459;28;20040;-80
2023/01/12 01:18:54;;;;;;;5.07;1.27;;;;;;;;;;5015012;28;20037;-82
2023/01/12 01:21:20;;;;;;;4.13;1.42;;;;;;;;;;5012683;28;20033;-81
2023/01/12 01:23:45;;;;;;;5.40;1.25;;;;;;;;;;5013286;28;20041;-80
2023/01/12 01:26:14;;;;;;;2.70;0.95;;;;;;;;;;5016744;28;20025;-80
2023/01/12 01:28:39;;;;;;;0.85;0.80;;;;;;;;;;5010551;28;20028;-80
2023/01/12 01:31:06;;;;;;;3.45;0.80;;;;;;;;;;5019642;28;20030;-82
2023/01/12 01:33:31;;;;;;;3.80;1.23;;;;;;;;;;5012210;28;20037;-81
2023/01/12 01:35:57;;;;;;;1.13;0.95;;;;;;;;;;5014870;28;20037;-81
2023/01/12 01:38:22;;;;;;;4.25;1.05;;;;;;;;;;5017637;28;20037;-82
2023/01/12 01:40:48;;;;;;;3.78;1.58;;;;;;;;;;5016219;28;20040;-79
2023/01/12 01:43:15;;;;;;;2.65;0.75;;;;;;;;;;5015746;28;20404;-79
2023/01/12 01:45:44;;;;;;;3.45;0.90;;;;;;;;;;5018158;28;20033;-81
2023/01/12 01:48:13;;;;;;;1.75;0.80;;;;;;;;;;5019857;28;20056;-81
2023/01/12 01:50:47;;;;;;;4.20;1.50;;;;;;;;;;5020507;28;20403;-80
2023/01/12 01:53:18;;;;;;;1.98;0.82;;;;;;;;;;5017084;28;20034;-80
2023/01/12 01:55:48;;;;;;;2.58;1.05;;;;;;;;;;5015837;28;20037;-81
2023/01/12 01:58:18;;;;;;;2.80;1.00;;;;;;;;;;5022614;28;20083;-82
2023/01/12 02:00:45;;;;;;;1.80;1.35;;;;;;;;;;5031480;28;20018;-77
2023/01/12 02:03:12;;;;;;;5.65;1.02;;;;;;;;;;5032101;28;20045;-80
2023/01/12 02:05:40;;;;;;;6.68;1.17;;;;;;;;;;5024759;28;21886;-80
2023/01/12 02:08:14;;;;;;;6.47;1.30;;;;;;;;;;5018193;28;20084;-81
2023/01/12 02:10:39;;;;;;;3.03;1.10;;;;;;;;;;5012328;28;20093;-80
2023/01/12 02:16:22;;;;;;;0.50;0.50;;;;;;;;;;5014250;28;20040;-79
2023/01/12 02:18:55;;;;;;;6.65;1.35;;;;;;;;;;5031751;28;20056;-80
2023/01/12 02:21:26;;;;;;;1.77;1.00;;;;;;;;;;5010896;28;21356;-79
2023/01/12 02:24:00;;;;;;;1.25;1.05;;;;;;;;;;5023526;28;20026;-80
2023/01/12 02:26:47;;;;;;;6.78;1.35;;;;;;;;;;5013004;28;20029;-80
2023/01/12 02:29:33;;;;;;;4.60;1.05;;;;;;;;;;5023140;28;20030;-78
2023/01/12 02:32:43;;;;;;;6.40;1.30;;;;;;;;;;5012139;28;20042;-80
2023/01/12 02:35:23;;;;;;;3.58;0.98;;;;;;;;;;5003784;28;20048;-80
2023/01/12 02:38:03;;;;;;;2.60;1.27;;;;;;;;;;5000224;28;20209;-81
2023/01/12 02:40:37;;;;;;;9.50;1.83;;;;;;;;;;5012658;28;20037;-80
2023/01/12 02:43:09;;;;;;;6.20;1.13;;;;;;;;;;5016539;28;20026;-80
2023/01/12 02:46:02;;;;;;;2.95;0.82;;;;;;;;;;5016952;28;20551;-82
2023/01/12 02:48:30;;;;;;;3.78;0.95;;;;;;;;;;5006453;28;20044;-82
2023/01/12 02:51:20;;;;;;;7.22;1.42;;;;;;;;;;5013672;28;20022;-80
2023/01/12 02:53:49;;;;;;;11.07;1.52;;;;;;;;;;5035352;28;20430;-80
2023/01/12 02:56:28;;;;;;;6.70;1.25;;;;;;;;;;5037074;28;20036;-80
2023/01/12 02:58:57;;;;;;;1.45;0.90;;;;;;;;;;5036436;28;20026;-80
2023/01/12 03:01:25;;;;;;;6.90;1.35;;;;;;;;;;5014764;28;20025;-81
2023/01/12 03:03:52;;;;;;;3.63;1.02;;;;;;;;;;5022417;28;20036;-80
2023/01/12 03:06:18;;;;;;;5.03;1.65;;;;;;;;;;5028279;28;20411;-81
2023/01/12 03:08:46;;;;;;;3.03;1.90;;;;;;;;;;5011612;28;20022;-81
2023/01/12 03:11:20;;;;;;;7.68;1.27;;;;;;;;;;5011950;28;20047;-81
2023/01/12 03:13:56;;;;;;;5.65;0.93;;;;;;;;;;5009503;28;20025;-80
2023/01/12 03:16:29;;;;;;;1.73;0.77;;;;;;;;;;5015712;28;20022;-81
2023/01/12 03:19:08;;;;;;;5.72;0.75;;;;;;;;;;5016251;28;20123;-80
2023/01/12 03:21:51;;;;;;;2.28;1.17;;;;;;;;;;5015431;28;20033;-81
2023/01/12 03:24:34;;;;;;;2.17;1.00;;;;;;;;;;5015663;28;20398;-81
2023/01/12 03:27:04;;;;;;;1.30;1.10;;;;;;;;;;5008788;28;20844;-81
2023/01/12 03:29:36;;;;;;;4.10;1.15;;;;;;;;;;5013251;28;20036;-80
2023/01/12 03:32:02;;;;;;;6.60;1.20;;;;;;;;;;5015785;28;20033;-80
2023/01/12 03:34:29;;;;;;;4.35;1.20;;;;;;;;;;5011335;28;21593;-81
2023/01/12 03:37:14;;;;;;;2.65;1.00;;;;;;;;;;5008204;28;20470;-80
2023/01/12 03:39:48;;;;;;;4.15;1.33;;;;;;;;;;5015710;28;20029;-80
2023/01/12 03:42:24;;;;;;;4.45;1.80;;;;;;;;;;5020752;28;20377;-80
2023/01/12 03:45:24;;;;;;;6.28;1.50;;;;;;;;;;5035194;28;20045;-79
2023/01/12 03:47:54;;;;;;;9.50;1.33;;;;;;;;;;5038442;28;20028;-81
2023/01/12 03:50:26;;;;;;;4.20;1.67;;;;;;;;;;5025585;28;20090;-81
2023/01/12 03:52:54;;;;;;;5.60;1.13;;;;;;;;;;5017135;28;20056;-81
2023/01/12 03:55:22;;;;;;;5.22;1.27;;;;;;;;;;5007182;28;20029;-81
2023/01/12 03:57:50;;;;;;;4.65;0.88;;;;;;;;;;5012025;28;20045;-81
2023/01/12 04:00:18;;;;;;;3.13;1.10;;;;;;;;;;5010309;28;20144;-81
2023/01/12 04:02:44;;;;;;;7.00;1.55;;;;;;;;;;5009592;28;20060;-82
2023/01/12 04:05:13;;;;;;;2.47;0.95;;;;;;;;;;5014204;28;20038;-83
2023/01/12 04:07:39;;;;;;;1.50;1.13;;;;;;;;;;5026765;28;20396;-82
2023/01/12 04:10:05;;;;;;;5.75;1.70;;;;;;;;;;5019648;28;20507;-81
2023/01/12 04:12:30;;;;;;;3.55;1.00;;;;;;;;;;5018237;28;20038;-82
2023/01/12 04:14:55;;;;;;;6.45;1.40;;;;;;;;;;5017172;28;20036;-82
2023/01/12 04:17:24;;;;;;;5.32;1.55;;;;;;;;;;5023920;28;20037;-82
2023/01/12 04:19:52;;;;;;;5.13;1.33;;;;;;;;;;5026702;28;20622;-82
2023/01/12 04:25:03;;;;;;;4.43;0.98;;;;;;;;;;5024119;28;20068;-82
2023/01/12 04:27:29;;;;;;;2.80;1.60;;;;;;;;;;5023963;28;20050;-82
2023/01/12 04:29:54;;;;;;;4.43;1.33;;;;;;;;;;5031987;28;20029;-82
2023/01/12 04:32:20;;;;;;;3.08;1.13;;;;;;;;;;5025625;28;20034;-82
2023/01/12 04:34:46;;;;;;;5.13;1.00;;;;;;;;;;5021945;28;20033;-82
2023/01/12 04:37:12;;;;;;;3.75;1.00;;;;;;;;;;5025870;28;20036;-81
2023/01/12 04:39:37;;;;;;;1.45;0.95;;;;;;;;;;5023436;28;20097;-82
2023/01/12 04:42:03;;;;;;;7.13;1.05;;;;;;;;;;5023972;28;20289;-82
2023/01/12 04:44:28;;;;;;;8.70;1.75;;;;;;;;;;5015363;28;20058;-81
2023/01/12 04:46:54;;;;;;;5.53;1.15;;;;;;;;;;5018319;28;20115;-82
2023/01/12 04:49:19;;;;;;;6.75;1.40;;;;;;;;;;5017105;28;20406;-81
2023/01/12 04:51:45;;;;;;;7.55;1.48;;;;;;;;;;5017307;28;20124;-81
2023/01/12 04:54:10;;;;;;;7.10;1.40;;;;;;;;;;5019361;28;20029;-81
2023/01/12 04:56:36;;;;;;;7.63;1.48;;;;;;;;;;5016003;28;20032;-81
2023/01/12 04:59:02;;;;;;;3.53;1.40;;;;;;;;;;5017814;28;20030;-80
2023/01/12 05:01:28;;;;;;;3.78;1.02;;;;;;;;;;5017971;28;20038;-81
2023/01/12 05:03:56;;;;;;;6.47;1.10;;;;;;;;;;5016314;28;20040;-80
2023/01/12 05:06:22;;;;;;;1.70;0.93;;;;;;;;;;5014111;28;20031;-82
2023/01/12 05:11:32;;;;;;;2.05;0.75;;;;;;;;;;5011826;28;20036;-81
2023/01/12 05:13:57;;;;;;;1.63;1.10;;;;;;;;;;5017122;28;21627;-81
2023/01/12 05:16:23;;;;;;;9.13;1.73;;;;;;;;;;5018615;28;20414;-83
2023/01/12 05:18:49;;;;;;;5.63;1.63;;;;;;;;;;5018232;28;20057;-82
2023/01/12 05:21:16;;;;;;;6.43;1.40;;;;;;;;;;5019159;28;20044;-82
2023/01/12 05:23:43;;;;;;;3.60;1.23;;;;;;;;;;5018089;28;20028;-82
2023/01/12 05:26:09;;;;;;;7.93;1.30;;;;;;;;;;5016848;28;20037;-82
2023/01/12 05:28:36;;;;;;;3.42;1.38;;;;;;;;;;5016890;28;20091;-82
2023/01/12 05:31:07;;;;;;;3.58;1.17;;;;;;;;;;5009996;28;20522;-83
2023/01/12 05:33:33;;;;;;;3.13;0.73;;;;;;;;;;5012998;28;20041;-82
2023/01/12 05:35:58;;;;;;;9.75;1.38;;;;;;;;;;5014863;28;20049;-80
2023/01/12 05:38:24;;;;;;;2.70;1.05;;;;;;;;;;5008679;28;20399;-82
2023/01/12 05:40:49;;;;;;;12.70;1.50;;;;;;;;;;5015253;28;20117;-82
2023/01/12 05:46:03;;;;;;;4.20;1.10;;;;;;;;;;5018548;28;20031;-82
2023/01/12 05:48:30;;;;;;;9.70;1.88;;;;;;;;;;5019295;28;20025;-83
2023/01/12 05:50:59;;;;;;;4.85;1.27;;;;;;;;;;5016080;28;20037;-81
2023/01/12 05:53:25;;;;;;;5.53;1.15;;;;;;;;;;5020108;28;20033;-81
2023/01/12 05:55:50;;;;;;;3.17;1.23;;;;;;;;;;5017325;28;20025;-82
2023/01/12 05:58:15;;;;;;;5.00;1.13;;;;;;;;;;5018582;28;20037;-82
2023/01/12 06:00:41;;;;;;;2.70;1.15;;;;;;;;;;5019406;28;20029;-80
2023/01/12 06:03:06;;;;;;;5.50;1.17;;;;;;;;;;5019562;28;20029;-82
2023/01/12 06:05:31;;;;;;;6.30;1.55;;;;;;;;;;5023225;28;20029;-81
2023/01/12 06:07:58;;;;;;;4.53;1.15;;;;;;;;;;5023527;28;20088;-82
2023/01/12 06:10:25;;;;;;;7.15;1.80;;;;;;;;;;5014669;28;20503;-82
2023/01/12 06:15:34;;;;;;;5.88;1.92;;;;;;;;;;5028677;28;20049;-81
2023/01/12 06:17:59;;;;;;;2.28;1.00;;;;;;;;;;5030639;28;20030;-84
2023/01/12 06:20:24;;;;;;;3.42;1.38;;;;;;;;;;5030174;28;20093;-80
2023/01/12 06:22:50;;;;;;;7.13;1.05;;;;;;;;;;5010871;28;23030;-82
2023/01/12 06:25:15;;;;;;;8.05;0.98;;;;;;;;;;5011094;28;20025;-82
2023/01/12 06:27:40;;;;;;;6.72;1.85;;;;;;;;;;5008283;28;20030;-83
2023/01/12 06:30:07;;;;;;;5.45;0.98;;;;;;;;;;5021430;28;20025;-81
2023/01/12 06:32:33;;;;;;;4.07;1.35;;;;;;;;;;5019595;28;20056;-82
2023/01/12 06:34:58;;;;;;;6.30;1.23;;;;;;;;;;5025878;28;20021;-81
2023/01/12 06:37:24;;;;;;;11.90;1.40;;;;;;;;;;5029480;28;20025;-80
2023/01/12 06:39:50;;;;;;;9.73;1.27;;;;;;;;;;5028622;28;20119;-81
2023/01/12 06:42:27;;;;;;;7.07;1.55;;;;;;;;;;5017337;28;20058;-83
2023/01/12 06:44:57;;;;;;;3.90;1.52;;;;;;;;;;5015263;28;20041;-82
2023/01/12 06:47:22;;;;;;;4.00;1.55;;;;;;;;;;5026995;28;20029;-83
2023/01/12 06:49:50;;;;;;;4.32;1.80;;;;;;;;;;5014721;28;20120;-81
2023/01/12 06:52:17;;;;;;;6.10;1.00;;;;;;;;;;5021150;28;20037;-81
2023/01/12 06:54:43;;;;;;;4.13;1.13;;;;;;;;;;5024394;28;20030;-82
2023/01/12 06:57:08;;;;;;;2.80;1.45;;;;;;;;;;5022611;28;20460;-82
2023/01/12 06:59:33;;;;;;;5.95;1.33;;;;;;;;;;5026978;28;20026;-82
2023/01/12 07:01:59;;;;;;;3.28;1.40;;;;;;;;;;5024322;28;20022;-83
2023/01/12 07:04:24;;;;;;;4.70;1.17;;;;;;;;;;5023759;28;20053;-83
2023/01/12 07:06:54;;;;;;;4.10;0.95;;;;;;;;;;5025418;28;20081;-83
2023/01/12 07:09:20;;;;;;;5.30;1.17;;;;;;;;;;4987645;28;20034;-82
2023/01/12 07:11:45;;;;;;;2.38;0.88;;;;;;;;;;5018661;28;20033;-83
2023/01/12 07:14:10;;;;;;;7.38;1.50;;;;;;;;;;5016530;28;20026;-82
2023/01/12 07:16:36;;;;;;;3.40;0.80;;;;;;;;;;5018263;28;20368;-82
2023/01/12 07:19:01;;;;;;;1.05;0.95;;;;;;;;;;5018695;28;20483;-82
2023/01/12 07:21:26;;;;;;;4.53;1.65;;;;;;;;;;5017706;28;20047;-82
2023/01/12 07:23:53;;;;;;;5.60;1.20;;;;;;;;;;5014156;28;20128;-82
2023/01/12 07:26:19;;;;;;;2.75;0.75;;;;;;;;;;5018142;28;20036;-82
2023/01/12 07:28:44;;;;;;;6.68;1.33;;;;;;;;;;5017176;28;20026;-81
2023/01/12 07:31:09;;;;;;;2.80;1.25;;;;;;;;;;5017949;28;20033;-83
2023/01/12 07:33:36;;;;;;;10.10;1.30;;;;;;;;;;5022848;28;20032;-81
2023/01/12 07:36:02;;;;;;;5.07;1.55;;;;;;;;;;5031678;28;20013;-82
2023/01/12 07:38:29;;;;;;;4.25;1.73;;;;;;;;;;5045325;28;20060;-82
2023/01/12 07:40:59;;;;;;;4.05;1.30;;;;;;;;;;5030815;28;20053;-81
2023/01/12 07:43:25;;;;;;;6.30;0.88;;;;;;;;;;5038376;28;20021;-79
2023/01/12 07:45:50;;;;;;;3.85;1.48;;;;;;;;;;5032464;28;20026;-84
2023/01/12 07:48:16;;;;;;;3.58;1.13;;;;;;;;;;5034310;28;20095;-80
2023/01/12 07:50:41;;;;;;;2.08;1.10;;;;;;;;;;5049121;28;20009;-83
2023/01/12 07:53:08;;;;;;;5.07;0.90;;;;;;;;;;5035573;28;20053;-83
2023/01/12 07:55:33;;;;;;;2.78;0.85;;;;;;;;;;5034651;28;20024;-83
2023/01/12 07:58:02;;;;;;;13.68;1.75;;;;;;;;;;5029380;28;20368;-83
2023/01/12 08:00:30;;;;;;;1.90;0.77;;;;;;;;;;5025469;28;20151;-82
2023/01/12 08:03:03;;;;;;;3.63;0.88;;;;;;;;;;5032341;28;20455;-82
2023/01/12 08:05:28;;;;;;;3.15;1.00;;;;;;;;;;5019113;28;20030;-82
2023/01/12 08:07:53;;;;;;;6.10;1.10;;;;;;;;;;5014887;28;20069;-82
2023/01/12 08:10:19;;;;;;;7.53;1.60;;;;;;;;;;5022378;28;20057;-82
2023/01/12 08:12:45;;;;;;;5.18;0.85;;;;;;;;;;5030449;28;20036;-82
2023/01/12 08:15:13;;;;;;;5.00;1.35;;;;;;;;;;5027985;28;20034;-82
2023/01/12 08:18:13;;;;;;;7.13;1.30;;;;;;;;;;5020449;28;20365;-82
2023/01/12 08:20:40;;;;;;;6.20;1.05;;;;;;;;;;5012270;28;20128;-83
2023/01/12 08:23:15;;;;;;;10.25;1.77;;;;;;;;;;5024299;28;20543;-82
2023/01/12 08:25:44;;;;;;;4.47;0.85;;;;;;;;;;5021190;28;20049;-81
2023/01/12 08:28:15;;;;;;;10.90;1.60;;;;;;;;;;5027925;28;20385;-83
2023/01/12 08:30:43;;;;;;;2.07;1.07;;;;;;;;;;5044214;28;20025;-82
2023/01/12 08:33:08;;;;;;;6.85;0.90;;;;;;;;;;5018430;28;20263;-82
2023/01/12 08:35:34;;;;;;;5.10;0.90;;;;;;;;;;5041911;28;20145;-82
2023/01/12 08:38:00;;;;;;;10.90;1.00;;;;;;;;;;5040442;28;20433;-83
2023/01/12 08:41:31;;;;;;;4.55;0.93;;;;;;;;;;5039684;28;20026;-80
2023/01/12 08:43:10;;;;;;;6.35;1.63;;;;;;;;;;5018991;28;20034;-83
2023/01/12 08:45:36;;;;;;;3.10;1.15;;;;;;;;;;5022939;28;20087;-84
2023/01/12 08:48:01;;;;;;;4.90;1.08;;;;;;;;;;5028457;28;20025;-82
2023/01/12 08:50:28;;;;;;;6.72;1.48;;;;;;;;;;5037808;28;20029;-82
2023/01/12 08:52:53;;;;;;;5.25;1.25;;;;;;;;;;5033265;28;20091;-84
2023/01/12 08:55:18;;;;;;;8.23;1.45;;;;;;;;;;5039277;28;20029;-83
2023/01/12 08:57:44;;;;;;;3.67;0.88;;;;;;;;;;5043999;28;20025;-82
2023/01/12 09:00:10;;;;;;;9.38;0.95;;;;;;;;;;5055415;28;20134;-80
2023/01/12 09:02:36;;;;;;;9.48;1.20;;;;;;;;;;5057336;28;20033;-80
2023/01/12 09:05:07;;;;;;;1.67;0.50;;;;;;;;;;5052052;28;20014;-80
2023/01/12 09:07:36;;;;;;;7.25;1.17;;;;;;;;;;5025406;28;20022;-82
2023/01/12 09:10:27;;;;;;;3.40;1.23;;;;;;;;;;5021074;28;20108;-81
2023/01/12 09:12:57;;;;;;;3.55;1.00;;;;;;;;;;5019071;28;20074;-82
2023/01/12 09:15:57;;;;;;;5.18;1.10;;;;;;;;;;5028986;28;20044;-82
2023/01/12 09:19:04;;;;;;;6.18;1.40;;;;;;;;;;5019241;28;20092;-83
2023/01/12 09:24:33;;;;;;;2.00;1.00;;;;;;;;;;5014904;28;20117;-82
2023/01/12 09:34:58;;;;;;;1.13;0.90;;;;;;;;;;4987734;28;20034;-81
2023/01/12 09:37:24;;;;;;;6.85;1.38;;;;;;;;;;5008199;28;20703;-82
2023/01/12 09:39:49;;;;;;;9.30;1.30;;;;;;;;;;5021508;28;20496;-82
2023/01/12 09:48:07;;;;;;;9.32;1.50;;;;;;;;;;5017528;28;20041;-82
2023/01/12 09:50:40;;;;;;;6.57;1.10;;;;;;;;;;5025736;28;20022;-83
2023/01/12 09:53:20;;;;;;;6.40;1.30;;;;;;;;;;5021360;28;20049;-84
2023/01/12 09:56:01;;;;;;;3.53;0.82;;;;;;;;;;5023960;28;20022;-82
2023/01/12 09:59:06;;;;;;;4.25;1.08;;;;;;;;;;5019607;28;20542;-82
2023/01/12 10:01:32;;;;;;;4.07;1.08;;;;;;;;;;5007179;28;20516;-83
2023/01/12 10:04:00;;;;;;;1.60;1.00;;;;;;;;;;5019931;28;20030;-84
2023/01/12 10:06:27;;;;;;;7.60;0.88;;;;;;;;;;5025615;28;20025;-83
2023/01/12 10:09:02;;;;;;;3.40;0.93;;;;;;;;;;5034878;28;20017;-82
2023/01/12 10:11:55;;;;;;;3.60;0.63;;;;;;;;;;5018851;28;20059;-82
2023/01/12 10:14:33;;;;;;;5.68;1.10;;;;;;;;;;5021852;28;20025;-83
2023/01/12 10:17:29;;;;;;;2.58;0.80;;;;;;;;;;5024510;28;20038;-81
2023/01/12 10:20:16;;;;;;;3.05;1.15;;;;;;;;;;5027246;28;20064;-82
2023/01/12 10:22:54;;;;;;;5.38;1.23;;;;;;;;;;4998868;28;20093;-82
2023/01/12 10:25:31;;;;;;;1.73;0.85;;;;;;;;;;5013778;28;20100;-82
2023/01/12 10:28:03;;;;;;;0.95;0.73;;;;;;;;;;5018341;28;20030;-82
2023/01/12 10:30:32;;;;;;;0.70;0.68;;;;;;;;;;5018801;28;20053;-81
2023/01/12 10:33:11;;;;;;;2.05;1.10;;;;;;;;;;5019536;28;20064;-82
2023/01/12 10:36:06;;;;;;;3.40;0.90;;;;;;;;;;5013272;28;20480;-82
2023/01/12 10:38:51;;;;;;;5.47;1.23;;;;;;;;;;5013330;28;20038;-80
2023/01/12 10:41:22;;;;;;;2.40;0.70;;;;;;;;;;5010812;28;20033;-82
2023/01/12 10:43:57;;;;;;;2.70;1.00;;;;;;;;;;5013265;28;20025;-82
2023/01/12 10:46:26;;;;;;;2.30;1.13;;;;;;;;;;5011136;28;20050;-82
2023/01/12 10:48:53;;;;;;;2.38;0.77;;;;;;;;;;5006507;28;20036;-82
2023/01/12 10:51:24;;;;;;;2.72;0.70;;;;;;;;;;5010960;28;20112;-83
2023/01/12 10:53:52;;;;;;;6.30;1.10;;;;;;;;;;5013330;28;20389;-82
2023/01/12 10:56:26;;;;;;;1.60;1.33;;;;;;;;;;5017941;28;20050;-83
2023/01/12 10:59:00;;;;;;;3.70;0.73;;;;;;;;;;5020161;28;20026;-85
2023/01/12 11:01:45;;;;;;;6.72;1.33;;;;;;;;;;5018337;28;20034;-82
2023/01/12 11:04:14;;;;;;;1.23;0.70;;;;;;;;;;5026795;28;20036;-81
2023/01/12 11:06:43;;;;;;;4.88;1.27;;;;;;;;;;5025326;28;20048;-82
2023/01/12 11:09:38;;;;;;;7.18;1.02;;;;;;;;;;5021793;28;20030;-85
2023/01/12 11:12:36;;;;;;;5.63;0.93;;;;;;;;;;5022952;28;20042;-83
2023/01/12 11:15:13;;;;;;;0.60;0.60;;;;;;;;;;5019134;28;20032;-85
2023/01/12 11:18:35;;;;;;;3.47;0.85;;;;;;;;;;5023583;28;20042;-83
2023/01/12 11:21:07;;;;;;;2.88;0.85;;;;;;;;;;5046674;28;20120;-83
2023/01/12 11:24:17;;;;;;;1.58;0.52;;;;;;;;;;5006474;28;20064;-83
2023/01/12 11:26:51;;;;;;;2.28;0.80;;;;;;;;;;5008929;28;20033;-83
2023/01/12 11:29:32;;;;;;;1.30;0.68;;;;;;;;;;5014473;28;20125;-83
2023/01/12 11:32:22;;;;;;;2.08;0.70;;;;;;;;;;5011357;28;20026;-83
2023/01/12 11:34:57;;;;;;;2.03;0.82;;;;;;;;;;5000674;28;20046;-81
2023/01/12 11:37:41;;;;;;;2.28;0.65;;;;;;;;;;5014235;28;20081;-83
2023/01/12 11:40:28;;;;;;;1.23;0.65;;;;;;;;;;5018512;28;20028;-83
2023/01/12 11:46:21;;;;;;;3.63;0.52;;;;;;;;;;5020363;28;20443;-82
2023/01/12 11:49:07;;;;;;;4.83;0.77;;;;;;;;;;5039897;28;20017;-81
2023/01/12 11:51:42;;;;;;;2.17;0.50;;;;;;;;;;5013541;28;20270;-84
2023/01/12 11:54:18;;;;;;;0.40;0.40;;;;;;;;;;5017453;28;20030;-83
2023/01/12 11:57:12;;;;;;;1.95;0.45;;;;;;;;;;5015379;28;20029;-82
2023/01/12 11:59:44;;;;;;;0.50;0.40;;;;;;;;;;5019748;28;20029;-83
2023/01/12 12:02:15;;;;;;;1.77;0.85;;;;;;;;;;5020508;28;20057;-81
2023/01/12 12:04:43;;;;;;;1.13;0.73;;;;;;;;;;5018234;28;20061;-83
2023/01/12 12:07:50;;;;;;;2.40;0.60;;;;;;;;;;5011496;28;20053;-83
2023/01/12 12:11:00;;;;;;;0.55;0.43;;;;;;;;;;5011080;23;20086;-85
2023/01/12 12:13:37;;;;;;;0.77;0.60;;;;;;;;;;4964954;28;20065;-83
2023/01/12 12:16:25;;;;;;;1.65;0.60;;;;;;;;;;4970762;28;20038;-84
2023/01/12 12:18:50;;;;;;;1.27;0.40;;;;;;;;;;4966906;28;20023;-83
2023/01/12 12:21:18;;;;;;;1.10;0.57;;;;;;;;;;4964648;28;20053;-83
2023/01/12 12:24:02;;;;;;;2.50;0.50;;;;;;;;;;4966478;28;20019;-82
2023/01/12 12:26:39;;;;;;;0.50;0.50;;;;;;;;;;4971867;28;20038;-82
2023/01/12 12:29:25;;;;;;;0.85;0.50;;;;;;;;;;4973626;28;20030;-81
2023/01/12 12:32:00;;;;;;;1.30;0.52;;;;;;;;;;4974298;28;20026;-81
2023/01/12 12:34:49;;;;;;;0.32;0.32;;;;;;;;;;4977496;28;20061;-81
2023/01/12 12:37:32;;;;;;;0.63;0.40;;;;;;;;;;4978021;28;20030;-80
2023/01/12 12:40:16;;;;;;;4.18;0.90;;;;;;;;;;4974999;28;20089;-82
2023/01/12 12:46:13;;;;;;;1.02;0.52;;;;;;;;;;4974850;28;20050;-81
2023/01/12 12:49:08;;;;;;;2.08;0.60;;;;;;;;;;4968868;28;20026;-82
2023/01/12 12:51:35;;;;;;;0.63;0.60;;;;;;;;;;4968154;28;20525;-82
2023/01/12 12:54:05;;;;;;;0.85;0.57;;;;;;;;;;4977178;28;20094;-80
2023/01/12 12:56:34;;;;;;;0.30;0.30;;;;;;;;;;4972491;28;20026;-82
2023/01/12 12:59:00;;;;;;;0.70;0.40;;;;;;;;;;4970085;28;20019;-80
2023/01/12 13:01:28;;;;;;;2.40;0.65;;;;;;;;;;4968276;28;20054;-81
2023/01/12 13:04:01;;;;;;;3.28;0.80;;;;;;;;;;4975372;28;20563;-81
2023/01/12 13:06:45;;;;;;;1.48;0.68;;;;;;;;;;4973910;28;20556;-83
2023/01/12 13:09:11;;;;;;;1.42;0.50;;;;;;;;;;4969807;28;20023;-81
2023/01/12 13:11:59;;;;;;;0.90;0.40;;;;;;;;;;4967298;28;20026;-81
2023/01/12 13:14:37;;;;;;;1.50;0.40;;;;;;;;;;4973508;28;20389;-81
2023/01/12 13:17:24;;;;;;;1.65;0.50;;;;;;;;;;4971066;28;20082;-84
2023/01/12 13:20:10;;;;;;;0.60;0.45;;;;;;;;;;4970784;28;20054;-82
2023/01/12 13:22:47;;;;;;;2.22;0.55;;;;;;;;;;4969400;28;20030;-81
2023/01/12 13:25:15;;;;;;;1.35;0.63;;;;;;;;;;4968473;28;20058;-81
2023/01/12 13:27:55;;;;;;;2.20;0.82;;;;;;;;;;4991598;28;20038;-81
2023/01/12 13:30:23;;;;;;;2.22;0.57;;;;;;;;;;4969241;28;20029;-81
2023/01/12 13:32:55;;;;;;;0.60;0.30;;;;;;;;;;4971517;28;20026;-81
2023/01/12 13:35:26;;;;;;;3.63;0.57;;;;;;;;;;4972068;28;20034;-81
2023/01/12 13:38:12;;;;;;;1.70;0.60;;;;;;;;;;4973593;28;20058;-81
2023/01/12 13:40:37;;;;;;;0.63;0.32;;;;;;;;;;4971788;28;20034;-82
2023/01/12 13:43:14;;;;;;;2.47;0.50;;;;;;;;;;4962602;28;20027;-82
2023/01/12 13:45:56;;;;;;;4.05;0.77;;;;;;;;;;4960415;28;20034;-83
2023/01/12 13:48:23;;;;;;;0.63;0.63;;;;;;;;;;4972877;28;20378;-81
2023/01/12 13:51:03;;;;;;;2.28;0.68;;;;;;;;;;4973989;28;20081;-83
2023/01/12 13:53:30;;;;;;;2.65;0.60;;;;;;;;;;4965106;28;20031;-81
2023/01/12 13:56:02;;;;;;;1.17;0.50;;;;;;;;;;4972581;28;20054;-81
2023/01/12 13:58:36;;;;;;;1.20;1.05;;;;;;;;;;4970280;28;20035;-82
2023/01/12 14:01:15;;;;;;;1.27;0.82;;;;;;;;;;4971616;28;20088;-82
2023/01/12 14:03:46;;;;;;;1.13;0.80;;;;;;;;;;4969172;28;20026;-83
2023/01/12 14:07:07;;;;;;;2.05;0.82;;;;;;;;;;4972449;28;20094;-83
2023/01/12 14:10:29;;;;;;;0.65;0.40;;;;;;;;;;4933088;28;20519;-82
2023/01/12 14:13:25;;;;;;;1.75;0.60;;;;;;;;;;4968697;28;20110;-84
2023/01/12 14:18:44;;;;;;;4.00;0.65;;;;;;;;;;4987131;28;20061;-82
2023/01/12 14:21:32;;;;;;;1.63;0.32;;;;;;;;;;4991244;28;20050;-82
2023/01/12 14:24:19;;;;;;;1.10;0.47;;;;;;;;;;4975196;28;20536;-83
2023/01/12 14:26:45;;;;;;;1.63;0.93;;;;;;;;;;4964375;28;20074;-81
2023/01/12 14:29:11;;;;;;;1.25;0.40;;;;;;;;;;4972025;28;20058;-81
2023/01/12 14:31:43;;;;;;;0.73;0.35;;;;;;;;;;4967421;28;20117;-84
2023/01/12 14:34:23;;;;;;;1.15;0.47;;;;;;;;;;4970971;28;20023;-81
2023/01/12 14:36:48;;;;;;;1.27;0.40;;;;;;;;;;4974069;28;20061;-83
2023/01/12 14:39:26;;;;;;;0.70;0.55;;;;;;;;;;4970717;28;20456;-83
2023/01/12 14:47:34;;;;;;;4.07;0.65;;;;;;;;;;4969639;28;20038;-83
2023/01/12 14:50:17;;;;;;;0.70;0.60;;;;;;;;;;4971280;28;20536;-83
2023/01/12 14:52:44;;;;;;;0.95;0.47;;;;;;;;;;4969842;28;20033;-81
2023/01/12 14:55:38;;;;;;;0.73;0.50;;;;;;;;;;4973524;28;20046;-83
2023/01/12 14:58:05;;;;;;;0.35;0.35;;;;;;;;;;4966154;28;20038;-82
2023/01/12 15:00:34;;;;;;;1.27;0.50;;;;;;;;;;4969168;28;20030;-82
2023/01/12 15:03:06;;;;;;;0.50;0.50;;;;;;;;;;4969555;28;20030;-81
2023/01/12 15:05:33;;;;;;;1.63;0.70;;;;;;;;;;4973530;28;20126;-82
2023/01/12 15:08:01;;;;;;;0.68;0.40;;;;;;;;;;4970996;28;20046;-83
2023/01/12 15:10:35;;;;;;;0.70;0.70;;;;;;;;;;4969685;28;20473;-83
2023/01/12 15:13:28;;;;;;;1.52;0.30;;;;;;;;;;4967305;28;20034;-82
2023/01/12 15:27:17;;;;;;;0.30;0.30;;;;;;;;;;4965193;28;20054;-81
2023/01/12 15:29:43;;;;;;;4.47;0.45;;;;;;;;;;4971073;28;20057;-83
2023/01/12 15:32:17;;;;;;;0.73;0.57;;;;;;;;;;4969143;28;20173;-83
2023/01/12 15:34:43;;;;;;;1.92;0.45;;;;;;;;;;4977339;28;21979;-82
2023/01/12 15:37:14;;;;;;;2.35;0.75;;;;;;;;;;4981059;28;20477;-83
2023/01/12 15:39:40;;;;;;;0.38;0.38;;;;;;;;;;4976213;28;20086;-81
2023/01/12 15:42:25;;;;;;;0.68;0.68;;;;;;;;;;4968279;28;20109;-83
2023/01/12 15:44:52;;;;;;;1.92;0.90;;;;;;;;;;4971357;28;20062;-81
2023/01/12 15:47:18;;;;;;;11.40;0.40;;;;;;;;;;4970492;28;20023;-81
2023/01/12 15:49:45;;;;;;;0.40;0.40;;;;;;;;;;4970057;28;20099;-83
2023/01/12 15:52:23;;;;;;;0.40;0.40;;;;;;;;;;4973304;28;20073;-81
2023/01/12 15:54:49;;;;;;;0.57;0.30;;;;;;;;;;4970679;28;20019;-82
2023/01/12 15:57:18;;;;;;;3.80;0.60;;;;;;;;;;4972416;28;20038;-82
2023/01/12 15:59:43;;;;;;;0.57;0.57;;;;;;;;;;4971652;28;20029;-85
2023/01/12 16:02:33;;;;;;;0.60;0.60;;;;;;;;;;4973979;28;20030;-83
2023/01/12 16:04:58;;;;;;;2.28;0.90;;;;;;;;;;4973630;28;20031;-81
2023/01/12 16:07:24;;;;;;;1.55;1.02;;;;;;;;;;4976301;28;20033;-82
2023/01/12 16:09:49;;;;;;;1.30;1.20;;;;;;;;;;4979883;28;20254;-82
2023/01/12 16:12:16;;;;;;;0.98;0.60;;;;;;;;;;4975732;28;20035;-82
2023/01/12 16:14:42;;;;;;;1.35;0.73;;;;;;;;;;4981389;28;20042;-81
2023/01/12 16:17:08;;;;;;;3.08;1.20;;;;;;;;;;4988193;28;20058;-83
2023/01/12 16:19:39;;;;;;;0.82;0.80;;;;;;;;;;4987471;28;20030;-82